createdAt,value
2023-05-11T00:00:35.122Z,16.76
2023-05-11T00:03:24.154Z,16.73
2023-05-11T00:06:48.550Z,16.70
2023-05-11T00:09:47.625Z,16.64
2023-05-11T00:12:48.896Z,16.59
2023-05-11T00:15:42.573Z,16.68
2023-05-11T00:18:23.188Z,16.43
2023-05-11T00:21:19.619Z,16.44
2023-05-11T00:27:23.723Z,16.38
2023-05-11T00:30:03.959Z,16.27
2023-05-11T00:32:58.734Z,16.35
2023-05-11T00:35:54.318Z,16.17
2023-05-11T00:38:55.618Z,16.05
2023-05-11T00:41:59.482Z,16.04
2023-05-11T00:45:02.153Z,16.26
2023-05-11T00:47:43.623Z,15.98
2023-05-11T00:50:31.057Z,15.71
2023-05-11T00:53:22.849Z,15.75
2023-05-11T00:56:16.332Z,15.61
2023-05-11T00:59:24.776Z,15.48
2023-05-11T01:01:57.826Z,15.91
2023-05-11T01:04:44.938Z,15.61
2023-05-11T01:08:16.142Z,15.50
2023-05-11T01:11:14.659Z,15.75
2023-05-11T01:14:29.533Z,15.88
2023-05-11T01:17:16.590Z,15.90
2023-05-11T01:19:56.131Z,15.97
2023-05-11T01:22:42.282Z,15.85
2023-05-11T01:29:04.117Z,15.98
2023-05-11T01:32:02.419Z,16.03
2023-05-11T01:34:54.856Z,16.13
2023-05-11T01:37:55.972Z,15.82
2023-05-11T01:40:43.073Z,15.98
2023-05-11T01:43:42.884Z,15.99
2023-05-11T01:46:29.770Z,15.94
2023-05-11T01:49:11.453Z,15.83
2023-05-11T01:52:17.418Z,15.91
2023-05-11T01:55:05.877Z,15.90
2023-05-11T01:57:45.315Z,15.90
2023-05-11T02:00:32.827Z,15.93
2023-05-11T02:03:41.914Z,15.90
2023-05-11T02:06:28.209Z,15.95
2023-05-11T02:09:14.221Z,15.57
2023-05-11T02:15:12.977Z,15.79
2023-05-11T02:17:56.042Z,15.46
2023-05-11T02:21:00.608Z,15.52
2023-05-11T02:24:05.272Z,15.65
2023-05-11T02:26:43.344Z,15.55
2023-05-11T02:29:42.596Z,15.67
2023-05-11T02:32:20.826Z,15.83
2023-05-11T02:35:35.445Z,15.75
2023-05-11T02:38:22.794Z,15.68
2023-05-11T02:41:15.196Z,15.78
2023-05-11T02:44:03.502Z,15.71
2023-05-11T02:46:51.927Z,15.53
2023-05-11T02:49:41.464Z,15.80
2023-05-11T02:52:31.456Z,15.84
2023-05-11T02:55:13.672Z,15.41
2023-05-11T02:58:02.128Z,15.38
2023-05-11T03:00:56.150Z,15.53
2023-05-11T03:03:40.213Z,15.25
2023-05-11T03:06:14.688Z,15.20
2023-05-11T03:09:13.825Z,15.20
2023-05-11T03:12:08.729Z,15.14
2023-05-11T03:15:08.276Z,14.94
2023-05-11T03:17:43.681Z,14.96
2023-05-11T03:20:23.667Z,14.84
2023-05-11T03:23:09.669Z,14.67
2023-05-11T03:25:48.978Z,14.39
2023-05-11T03:28:42.767Z,14.56
2023-05-11T03:31:33.173Z,14.75
2023-05-11T03:34:22.222Z,14.76
2023-05-11T03:37:26.261Z,14.71
2023-05-11T03:40:08.525Z,14.54
2023-05-11T03:43:15.122Z,14.89
2023-05-11T03:46:15.839Z,14.71
2023-05-11T03:49:12.180Z,14.44
2023-05-11T03:51:50.762Z,14.60
2023-05-11T03:54:38.528Z,14.60
2023-05-11T03:57:38.158Z,14.62
2023-05-11T04:07:11.362Z,14.76
2023-05-11T04:09:59.401Z,14.77
2023-05-11T04:13:01.910Z,14.72
2023-05-11T04:18:58.872Z,14.82
2023-05-11T04:22:00.290Z,15.17
2023-05-11T04:24:55.417Z,14.72
2023-05-11T04:28:11.291Z,14.41
2023-05-11T04:31:05.829Z,14.48
2023-05-11T04:34:07.229Z,14.19
2023-05-11T04:37:35.806Z,14.35
2023-05-11T04:48:32.468Z,14.39
2023-05-11T04:51:49.064Z,14.85
2023-05-11T04:54:58.611Z,15.46
2023-05-11T04:58:38.433Z,15.55
2023-05-11T05:02:17.040Z,15.59
2023-05-11T05:05:09.111Z,15.58
2023-05-11T05:08:21.459Z,15.83
2023-05-11T05:21:13.563Z,16.63
2023-05-11T05:23:56.875Z,16.82
2023-05-11T05:27:02.092Z,16.98
2023-05-11T05:29:54.934Z,17.51
2023-05-11T05:32:43.397Z,17.71
2023-05-11T05:35:22.138Z,17.51
2023-05-11T05:38:03.896Z,17.15
2023-05-11T05:40:50.138Z,16.40
2023-05-11T05:43:30.833Z,16.46
2023-05-11T05:46:07.759Z,16.15
2023-05-11T05:51:43.921Z,16.78
2023-05-11T05:54:25.516Z,16.12
2023-05-11T05:57:09.468Z,16.58
2023-05-11T05:59:46.518Z,16.93
2023-05-11T06:02:54.735Z,16.89
2023-05-11T06:05:34.569Z,17.15
2023-05-11T06:10:41.510Z,17.59
2023-05-11T06:13:20.831Z,17.75
2023-05-11T06:15:49.576Z,17.64
2023-05-11T06:18:24.873Z,17.26
2023-05-11T06:21:07.921Z,17.63
2023-05-11T06:23:44.834Z,17.48
2023-05-11T06:26:15.975Z,17.45
2023-05-11T06:28:52.909Z,17.76
2023-05-11T06:31:24.641Z,17.91
2023-05-11T06:33:58.714Z,17.16
2023-05-11T06:36:36.143Z,17.35
2023-05-11T06:39:12.468Z,17.33
2023-05-11T06:41:43.367Z,17.34
2023-05-11T06:44:18.782Z,16.60
2023-05-11T06:46:51.299Z,16.70
2023-05-11T06:49:25.113Z,16.96
2023-05-11T06:51:54.252Z,16.97
2023-05-11T06:54:32.277Z,17.06
2023-05-11T06:57:09.630Z,17.59
2023-05-11T06:59:48.336Z,17.26
2023-05-11T07:02:18.093Z,17.62
2023-05-11T07:04:50.681Z,17.44
2023-05-11T07:07:26.634Z,17.14
2023-05-11T07:10:04.716Z,17.82
2023-05-11T07:12:44.445Z,17.57
2023-05-11T07:15:18.043Z,18.64
2023-05-11T07:17:56.015Z,18.34
2023-05-11T07:20:29.931Z,18.56
2023-05-11T07:23:02.074Z,18.60
2023-05-11T07:25:39.048Z,18.63
2023-05-11T07:28:19.801Z,18.52
2023-05-11T07:31:00.549Z,18.61
2023-05-11T07:33:36.027Z,18.08
2023-05-11T07:36:15.699Z,17.89
2023-05-11T07:38:48.590Z,18.20
2023-05-11T07:41:31.026Z,18.27
2023-05-11T07:44:07.954Z,18.08
2023-05-11T07:46:38.430Z,18.69
2023-05-11T07:49:17.351Z,18.33
2023-05-11T07:51:54.659Z,18.68
2023-05-11T07:54:26.443Z,18.84
2023-05-11T07:57:06.064Z,18.17
2023-05-11T07:59:41.084Z,18.84
2023-05-11T08:02:14.362Z,19.08
2023-05-11T08:04:48.797Z,19.51
2023-05-11T08:07:26.868Z,19.25
2023-05-11T08:09:55.657Z,19.29
2023-05-11T08:12:27.390Z,19.18
2023-05-11T08:14:58.227Z,19.15
2023-05-11T08:17:33.166Z,19.35
2023-05-11T08:20:12.116Z,19.39
2023-05-11T08:22:44.398Z,19.20
2023-05-11T08:25:20.156Z,19.13
2023-05-11T08:28:06.739Z,19.38
2023-05-11T08:30:44.554Z,19.74
2023-05-11T08:35:53.861Z,19.43
2023-05-11T08:38:25.313Z,19.74
2023-05-11T08:40:59.727Z,19.31
2023-05-11T08:43:33.673Z,19.05
2023-05-11T08:46:10.484Z,19.06
2023-05-11T08:48:46.217Z,19.48
2023-05-11T08:51:19.427Z,19.80
2023-05-11T08:54:00.143Z,19.81
2023-05-11T08:56:35.679Z,19.87
2023-05-11T08:59:06.572Z,19.38
2023-05-11T09:01:50.581Z,20.00
2023-05-11T09:04:27.947Z,20.26
2023-05-11T09:07:12.843Z,20.97
2023-05-11T09:09:43.303Z,20.80
2023-05-11T09:12:15.945Z,20.40
2023-05-11T09:14:49.674Z,20.59
2023-05-11T09:17:21.301Z,20.72
2023-05-11T09:20:11.304Z,20.54
2023-05-11T09:22:56.578Z,20.24
2023-05-11T09:25:27.823Z,20.14
2023-05-11T09:28:04.000Z,20.59
2023-05-11T09:30:42.708Z,20.84
2023-05-11T09:33:22.109Z,21.12
2023-05-11T09:35:52.423Z,21.00
2023-05-11T09:38:28.131Z,20.65
2023-05-11T09:41:01.143Z,20.93
2023-05-11T09:43:38.984Z,21.16
2023-05-11T09:46:23.489Z,21.44
2023-05-11T09:49:02.258Z,21.53
2023-05-11T09:51:40.623Z,21.41
2023-05-11T09:54:23.111Z,21.53
2023-05-11T09:56:58.946Z,21.11
2023-05-11T09:59:43.080Z,21.46
2023-05-11T10:02:19.233Z,21.53
2023-05-11T10:05:03.202Z,21.61
2023-05-11T10:07:41.212Z,21.48
2023-05-11T10:10:13.692Z,21.70
2023-05-11T10:12:44.793Z,21.57
2023-05-11T10:15:36.253Z,22.17
2023-05-11T10:18:08.386Z,21.73
2023-05-11T10:20:51.384Z,21.13
2023-05-11T10:23:38.824Z,21.26
2023-05-11T10:26:25.940Z,21.82
2023-05-11T10:29:14.069Z,21.76
2023-05-11T10:31:51.325Z,21.08
2023-05-11T10:34:24.021Z,21.06
2023-05-11T10:37:17.706Z,21.49
2023-05-11T10:40:02.185Z,21.76
2023-05-11T10:43:11.888Z,21.54
2023-05-11T10:46:30.336Z,21.17
2023-05-11T10:49:43.258Z,21.33
2023-05-11T10:53:02.362Z,21.86
2023-05-11T10:59:28.969Z,21.26
2023-05-11T11:02:13.742Z,21.29
2023-05-11T11:05:30.808Z,20.59
2023-05-11T11:16:19.201Z,20.83
2023-05-11T11:20:04.592Z,20.59
2023-05-11T11:27:52.004Z,20.39
2023-05-11T11:32:02.814Z,20.60
2023-05-11T11:43:03.599Z,21.22
2023-05-11T11:47:12.741Z,21.75
2023-05-11T11:50:41.950Z,21.34
2023-05-11T11:54:36.975Z,20.92
2023-05-11T11:57:52.765Z,20.99
2023-05-11T12:00:27.804Z,21.06
2023-05-11T12:03:12.905Z,21.77
2023-05-11T12:06:14.327Z,21.74
2023-05-11T12:10:02.227Z,22.02
2023-05-11T12:12:52.478Z,21.79
2023-05-11T12:15:54.567Z,21.14
2023-05-11T12:18:49.413Z,21.28
2023-05-11T12:21:49.157Z,21.13
2023-05-11T12:24:27.003Z,21.08
2023-05-11T12:27:18.689Z,21.37
2023-05-11T12:30:32.505Z,21.61
2023-05-11T12:34:05.266Z,22.17
2023-05-11T12:37:17.387Z,21.74
2023-05-11T12:40:26.127Z,21.06
2023-05-11T12:43:12.287Z,21.46
2023-05-11T12:46:08.544Z,22.07
2023-05-11T12:48:45.469Z,22.24
2023-05-11T12:55:01.070Z,21.82
2023-05-11T12:57:54.360Z,21.58
2023-05-11T13:00:42.795Z,21.79
2023-05-11T13:03:50.873Z,21.79
2023-05-11T13:06:44.094Z,21.63
2023-05-11T13:09:47.556Z,21.87
2023-05-11T13:12:39.992Z,21.45
2023-05-11T13:15:39.797Z,21.60
2023-05-11T13:18:30.185Z,21.62
2023-05-11T13:21:36.289Z,21.32
2023-05-11T13:24:27.900Z,21.25
2023-05-11T13:27:22.782Z,21.48
2023-05-11T13:30:10.122Z,21.17
2023-05-11T13:33:25.443Z,21.55
2023-05-11T13:36:41.391Z,21.12
2023-05-11T13:39:48.920Z,21.18
2023-05-11T13:42:48.409Z,21.25
2023-05-11T13:45:40.911Z,21.55
2023-05-11T13:51:34.831Z,21.24
2023-05-11T13:54:39.733Z,21.26
2023-05-11T13:57:36.797Z,21.55
2023-05-11T14:00:56.624Z,21.42
2023-05-11T14:03:58.969Z,21.24
2023-05-11T14:07:17.583Z,21.30
2023-05-11T14:11:05.889Z,20.77
2023-05-11T14:13:31.388Z,20.98
2023-05-11T14:16:46.165Z,21.11
2023-05-11T14:20:01.867Z,21.33
2023-05-11T14:23:14.395Z,21.35
2023-05-11T14:26:16.895Z,21.56
2023-05-11T14:29:06.933Z,21.33
2023-05-11T14:32:51.142Z,21.34
2023-05-11T14:35:37.780Z,20.50
2023-05-11T14:39:03.079Z,21.14
2023-05-11T14:47:46.976Z,21.10
2023-05-11T14:50:31.248Z,20.92
2023-05-11T14:53:24.770Z,21.07
2023-05-11T14:56:18.592Z,20.79
2023-05-11T14:59:10.860Z,20.65
2023-05-11T15:01:56.331Z,21.09
2023-05-11T15:09:32.617Z,20.74
2023-05-11T15:12:36.866Z,20.71
2023-05-11T15:15:54.316Z,20.68
2023-05-11T15:19:00.690Z,20.85
2023-05-11T15:21:58.436Z,20.95
2023-05-11T15:25:06.943Z,21.20
2023-05-11T15:28:20.272Z,20.95
2023-05-11T15:31:39.179Z,20.62
2023-05-11T15:38:23.382Z,20.76
2023-05-11T15:41:07.998Z,21.17
2023-05-11T15:45:00.806Z,21.29
2023-05-11T15:48:25.429Z,21.06
2023-05-11T15:55:35.086Z,20.99
2023-05-11T15:59:18.752Z,20.70
2023-05-11T16:01:58.364Z,20.83
2023-05-11T16:05:13.482Z,20.68
2023-05-11T16:08:31.820Z,20.39
2023-05-11T16:11:58.594Z,20.06
2023-05-11T16:15:07.929Z,20.46
2023-05-11T16:18:10.622Z,20.20
2023-05-11T16:21:28.583Z,20.62
2023-05-11T16:28:47.282Z,20.38
2023-05-11T16:35:23.134Z,20.44
2023-05-11T16:38:49.787Z,19.93
2023-05-11T16:41:59.836Z,19.76
2023-05-11T16:48:42.062Z,19.42
2023-05-11T16:51:47.331Z,19.53
2023-05-11T16:55:12.734Z,19.56
2023-05-11T16:58:03.033Z,19.62
2023-05-11T17:07:46.285Z,19.52
2023-05-11T17:13:54.348Z,19.31
2023-05-11T17:17:14.072Z,19.55
2023-05-11T17:20:20.590Z,18.60
2023-05-11T17:24:01.818Z,18.78
2023-05-11T17:26:49.338Z,18.84
2023-05-11T17:29:41.048Z,18.45
2023-05-11T17:36:25.932Z,18.65
2023-05-11T17:40:34.422Z,18.73
2023-05-11T17:44:04.975Z,18.62
2023-05-11T17:47:09.891Z,19.05
2023-05-11T17:50:01.892Z,18.87
2023-05-11T17:56:29.230Z,18.32
2023-05-11T18:00:17.234Z,18.54
2023-05-11T18:04:04.160Z,18.48
2023-05-11T18:13:32.152Z,17.81
2023-05-11T18:19:44.247Z,17.60
2023-05-11T18:26:05.262Z,16.89
2023-05-11T18:29:23.512Z,17.45
2023-05-11T18:36:12.826Z,17.01
2023-05-11T18:39:46.065Z,16.71
2023-05-11T18:43:48.145Z,16.97
2023-05-11T18:57:49.160Z,15.95
2023-05-11T19:01:19.094Z,15.84
2023-05-11T19:08:49.211Z,15.06
2023-05-11T19:16:14.735Z,14.89
2023-05-11T19:20:04.981Z,15.50
2023-05-11T19:27:06.564Z,15.36
2023-05-11T19:30:35.580Z,15.35
2023-05-11T19:33:56.579Z,15.22
2023-05-11T19:37:47.607Z,14.97
2023-05-11T19:42:38.976Z,15.15
2023-05-11T19:46:03.741Z,14.63
2023-05-11T19:49:39.733Z,15.14
2023-05-11T20:01:34.016Z,15.13
2023-05-11T20:09:56.942Z,14.54
2023-05-11T20:17:52.358Z,15.14
2023-05-11T20:24:53.796Z,14.75
2023-05-11T20:32:29.337Z,14.96
2023-05-11T20:36:23.733Z,15.23
2023-05-11T21:09:13.904Z,13.51
2023-05-11T21:13:23.204Z,14.25
2023-05-11T21:16:17.856Z,14.19
2023-05-11T21:19:57.218Z,14.13
2023-05-11T21:27:23.111Z,14.25
2023-05-11T21:34:34.544Z,14.24
2023-05-11T21:37:24.889Z,14.05
2023-05-11T21:40:52.160Z,13.86
2023-05-11T21:51:15.863Z,14.10
2023-05-11T21:54:36.848Z,14.29
2023-05-11T21:57:31.454Z,14.18
2023-05-11T22:16:29.791Z,13.90
2023-05-11T22:24:01.105Z,14.01
2023-05-11T22:39:02.645Z,14.24
2023-05-11T22:50:23.806Z,14.67
2023-05-11T22:53:18.298Z,14.85
2023-05-11T22:56:48.709Z,14.99
2023-05-11T23:11:54.129Z,15.16
2023-05-11T23:14:57.269Z,14.92
2023-05-11T23:17:45.871Z,15.02
2023-05-11T23:21:27.584Z,14.91
2023-05-11T23:24:17.015Z,14.95
2023-05-11T23:39:31.283Z,14.39
2023-05-11T23:43:35.995Z,14.83
2023-05-11T23:50:23.117Z,14.31
